createdAt,value
2023-04-06T00:01:00.871Z,6.36
2023-04-06T00:02:00.888Z,6.48
2023-04-06T00:03:00.975Z,6.44
2023-04-06T00:04:00.892Z,6.46
2023-04-06T00:05:00.828Z,6.44
2023-04-06T00:06:00.865Z,6.48
2023-04-06T00:07:00.828Z,6.42
2023-04-06T00:08:00.841Z,6.39
2023-04-06T00:09:00.813Z,6.46
2023-04-06T00:10:00.783Z,6.45
2023-04-06T00:11:00.786Z,6.52
2023-04-06T00:12:00.784Z,6.46
2023-04-06T00:13:00.769Z,6.44
2023-04-06T00:14:00.776Z,6.45
2023-04-06T00:15:00.763Z,6.39
2023-04-06T00:16:00.769Z,6.42
2023-04-06T00:17:00.804Z,6.44
2023-04-06T00:18:00.746Z,6.35
2023-04-06T00:19:00.727Z,6.35
2023-04-06T00:20:00.709Z,6.49
2023-04-06T00:21:00.747Z,6.39
2023-04-06T00:22:00.734Z,6.44
2023-04-06T00:23:00.697Z,6.36
2023-04-06T00:24:00.730Z,6.42
2023-04-06T00:25:00.780Z,6.36
2023-04-06T00:26:00.684Z,6.48
2023-04-06T00:27:00.694Z,6.41
2023-04-06T00:28:00.735Z,6.36
2023-04-06T00:29:00.669Z,6.42
2023-04-06T00:30:00.671Z,6.36
2023-04-06T00:31:00.670Z,6.36
2023-04-06T00:32:00.694Z,6.33
2023-04-06T00:33:00.667Z,6.38
2023-04-06T00:34:00.650Z,6.38
2023-04-06T00:35:00.628Z,6.36
2023-04-06T00:36:00.692Z,6.44
2023-04-06T00:37:00.604Z,6.38
2023-04-06T00:38:00.576Z,6.38
2023-04-06T00:39:00.680Z,6.35
2023-04-06T00:40:00.581Z,6.30
2023-04-06T00:41:00.581Z,6.33
2023-04-06T00:42:00.574Z,6.30
2023-04-06T00:43:00.570Z,6.28
2023-04-06T00:44:00.558Z,6.31
2023-04-06T00:45:00.554Z,6.33
2023-04-06T00:46:00.592Z,6.31
2023-04-06T00:47:00.527Z,6.33
2023-04-06T00:48:00.555Z,6.31
2023-04-06T00:49:00.558Z,6.27
2023-04-06T00:50:00.519Z,6.33
2023-04-06T00:51:00.537Z,6.27
2023-04-06T00:52:00.560Z,6.27
2023-04-06T00:53:00.476Z,6.24
2023-04-06T00:54:00.471Z,6.31
2023-04-06T00:55:00.475Z,6.30
2023-04-06T00:56:00.482Z,6.38
2023-04-06T00:57:00.470Z,6.27
2023-04-06T00:58:00.436Z,6.28
2023-04-06T00:59:00.486Z,6.35
2023-04-06T01:00:00.423Z,6.27
2023-04-06T01:01:00.515Z,6.30
2023-04-06T01:02:00.471Z,6.16
2023-04-06T01:03:00.491Z,6.26
2023-04-06T01:04:00.399Z,6.22
2023-04-06T01:05:00.490Z,6.22
2023-04-06T01:06:00.418Z,6.22
2023-04-06T01:07:00.371Z,6.12
2023-04-06T01:08:00.407Z,6.08
2023-04-06T01:09:00.429Z,6.16
2023-04-06T01:10:00.358Z,6.11
2023-04-06T01:11:00.354Z,6.16
2023-04-06T01:12:00.332Z,6.16
2023-04-06T01:13:00.381Z,6.22
2023-04-06T01:14:00.354Z,6.16
2023-04-06T01:15:00.360Z,6.14
2023-04-06T01:16:00.367Z,6.16
2023-04-06T01:17:00.324Z,6.08
2023-04-06T01:18:00.355Z,6.04
2023-04-06T01:19:00.322Z,6.08
2023-04-06T01:20:00.280Z,6.11
2023-04-06T01:21:00.317Z,6.08
2023-04-06T01:22:00.262Z,6.11
2023-04-06T01:23:00.254Z,6.16
2023-04-06T01:24:00.265Z,6.07
2023-04-06T01:25:00.259Z,6.01
2023-04-06T01:26:00.257Z,6.14
2023-04-06T01:27:00.232Z,6.02
2023-04-06T01:28:00.217Z,6.01
2023-04-06T01:29:00.209Z,6.05
2023-04-06T01:30:00.212Z,6.02
2023-04-06T01:31:00.241Z,6.05
2023-04-06T01:32:00.202Z,6.11
2023-04-06T01:33:00.250Z,6.05
2023-04-06T01:34:00.194Z,6.04
2023-04-06T01:35:00.186Z,5.99
2023-04-06T01:36:00.211Z,6.02
2023-04-06T01:37:00.152Z,6.05
2023-04-06T01:38:00.164Z,6.01
2023-04-06T01:39:00.153Z,5.99
2023-04-06T01:40:00.232Z,6.01
2023-04-06T01:41:00.129Z,5.94
2023-04-06T01:42:00.156Z,5.99
2023-04-06T01:43:00.129Z,5.94
2023-04-06T01:44:00.132Z,5.91
2023-04-06T01:45:00.104Z,5.90
2023-04-06T01:46:00.125Z,5.94
2023-04-06T01:47:00.190Z,5.89
2023-04-06T01:48:00.172Z,5.93
2023-04-06T01:49:00.120Z,5.93
2023-04-06T01:50:00.061Z,5.86
2023-04-06T01:51:00.094Z,5.91
2023-04-06T01:52:00.058Z,5.80
2023-04-06T01:53:00.041Z,5.87
2023-04-06T01:54:00.143Z,5.83
2023-04-06T01:55:00.013Z,5.89
2023-04-06T01:56:00.024Z,5.71
2023-04-06T01:57:00.003Z,5.86
2023-04-06T01:57:59.997Z,5.80
2023-04-06T01:58:59.993Z,5.76
2023-04-06T01:59:59.984Z,5.87
2023-04-06T02:01:00.005Z,5.76
2023-04-06T02:02:00.007Z,5.75
2023-04-06T02:03:00.042Z,5.75
2023-04-06T02:03:59.973Z,5.76
2023-04-06T02:04:59.978Z,5.76
2023-04-06T02:05:59.937Z,5.76
2023-04-06T02:06:59.947Z,5.72
2023-04-06T02:07:59.922Z,5.75
2023-04-06T02:08:59.907Z,5.73
2023-04-06T02:09:59.895Z,5.71
2023-04-06T02:10:59.900Z,5.72
2023-04-06T02:11:59.884Z,5.69
2023-04-06T02:12:59.877Z,5.76
2023-04-06T02:13:59.873Z,5.68
2023-04-06T02:14:59.897Z,5.68
2023-04-06T02:15:59.913Z,5.66
2023-04-06T02:16:59.849Z,5.69
2023-04-06T02:17:59.872Z,5.69
2023-04-06T02:18:59.831Z,5.64
2023-04-06T02:19:59.849Z,5.69
2023-04-06T02:20:59.870Z,5.69
2023-04-06T02:21:59.827Z,5.61
2023-04-06T02:22:59.794Z,5.68
2023-04-06T02:23:59.787Z,5.64
2023-04-06T02:24:59.859Z,5.65
2023-04-06T02:25:59.779Z,5.64
2023-04-06T02:26:59.765Z,5.71
2023-04-06T02:27:59.769Z,5.66
2023-04-06T02:28:59.775Z,5.69
2023-04-06T02:29:59.743Z,5.64
2023-04-06T02:30:59.764Z,5.59
2023-04-06T02:31:59.772Z,5.66
2023-04-06T02:32:59.749Z,5.62
2023-04-06T02:33:59.712Z,5.68
2023-04-06T02:34:59.724Z,5.66
2023-04-06T02:35:59.745Z,5.62
2023-04-06T02:36:59.727Z,5.65
2023-04-06T02:37:59.738Z,5.62
2023-04-06T02:38:59.685Z,5.47
2023-04-06T02:39:59.666Z,5.48
2023-04-06T02:40:59.662Z,5.54
2023-04-06T02:41:59.673Z,5.48
2023-04-06T02:42:59.655Z,5.56
2023-04-06T02:43:59.676Z,5.48
2023-04-06T02:44:59.633Z,5.53
2023-04-06T02:45:59.676Z,5.50
2023-04-06T02:46:59.640Z,5.51
2023-04-06T02:47:59.639Z,5.48
2023-04-06T02:48:59.603Z,5.46
2023-04-06T02:49:59.717Z,5.39
2023-04-06T02:50:59.598Z,5.39
2023-04-06T02:51:59.573Z,5.41
2023-04-06T02:52:59.564Z,5.51
2023-04-06T02:53:59.556Z,5.39
2023-04-06T02:54:59.561Z,5.36
2023-04-06T02:55:59.545Z,5.48
2023-04-06T02:56:59.568Z,5.43
2023-04-06T02:57:59.556Z,5.44
2023-04-06T02:58:59.560Z,5.39
2023-04-06T02:59:59.516Z,5.29
2023-04-06T03:00:59.533Z,5.29
2023-04-06T03:01:59.535Z,5.28
2023-04-06T03:02:59.598Z,5.25
2023-04-06T03:03:59.506Z,5.30
2023-04-06T03:04:59.461Z,5.20
2023-04-06T03:05:59.512Z,5.26
2023-04-06T03:07:01.367Z,5.18
2023-04-06T03:07:59.449Z,5.20
2023-04-06T03:08:59.530Z,5.17
2023-04-06T03:09:59.457Z,5.08
2023-04-06T03:10:59.441Z,5.18
2023-04-06T03:11:59.458Z,5.05
2023-04-06T03:12:59.405Z,5.08
2023-04-06T03:13:59.404Z,5.07
2023-04-06T03:14:59.399Z,5.08
2023-04-06T03:15:59.468Z,4.93
2023-04-06T03:16:59.381Z,4.89
2023-04-06T03:18:00.586Z,4.93
2023-04-06T03:18:59.400Z,4.97
2023-04-06T03:19:59.349Z,4.97
2023-04-06T03:20:59.345Z,4.97
2023-04-06T03:21:59.331Z,4.99
2023-04-06T03:22:59.333Z,4.96
2023-04-06T03:23:59.338Z,4.96
2023-04-06T03:25:00.963Z,4.92
2023-04-06T03:25:59.342Z,4.94
2023-04-06T03:26:59.300Z,4.97
2023-04-06T03:27:59.294Z,4.94
2023-04-06T03:28:59.274Z,4.96
2023-04-06T03:29:59.312Z,4.99
2023-04-06T03:30:59.310Z,4.99
2023-04-06T03:31:59.265Z,4.99
2023-04-06T03:32:59.314Z,4.96
2023-04-06T03:33:59.285Z,4.93
2023-04-06T03:34:59.266Z,4.90
2023-04-06T03:35:59.234Z,4.92
2023-04-06T03:37:09.357Z,4.86
2023-04-06T03:37:59.231Z,4.87
2023-04-06T03:38:59.201Z,4.86
2023-04-06T03:39:59.189Z,4.94
2023-04-06T03:40:59.170Z,4.89
2023-04-06T03:41:59.167Z,4.94
2023-04-06T03:42:59.173Z,4.87
2023-04-06T03:43:59.157Z,4.74
2023-04-06T03:44:59.146Z,4.92
2023-04-06T03:45:59.221Z,4.77
2023-04-06T03:46:59.234Z,4.77
2023-04-06T03:47:59.155Z,4.78
2023-04-06T03:48:59.107Z,4.78
2023-04-06T03:49:59.104Z,4.75
2023-04-06T03:50:59.106Z,4.73
2023-04-06T03:51:59.080Z,4.70
2023-04-06T03:52:59.074Z,4.73
2023-04-06T03:53:59.074Z,4.74
2023-04-06T03:54:59.046Z,4.77
2023-04-06T03:55:59.045Z,4.74
2023-04-06T03:56:59.045Z,4.77
2023-04-06T03:57:59.046Z,4.74
2023-04-06T03:58:59.050Z,4.73
2023-04-06T03:59:59.049Z,4.73
2023-04-06T04:00:59.019Z,4.73
2023-04-06T04:01:59.036Z,4.78
2023-04-06T04:02:59.128Z,4.70
2023-04-06T04:03:59.088Z,4.73
2023-04-06T04:04:59.097Z,4.71
2023-04-06T04:05:59.002Z,4.73
2023-04-06T04:06:58.958Z,4.71
2023-04-06T04:07:58.950Z,4.71
2023-04-06T04:08:58.939Z,4.71
2023-04-06T04:09:58.923Z,4.68
2023-04-06T04:10:58.979Z,4.68
2023-04-06T04:11:58.914Z,4.74
2023-04-06T04:12:58.901Z,4.68
2023-04-06T04:13:58.910Z,4.68
2023-04-06T04:14:58.927Z,4.70
2023-04-06T04:15:58.895Z,4.67
2023-04-06T04:16:58.892Z,4.68
2023-04-06T04:17:58.899Z,4.71
2023-04-06T04:18:58.874Z,4.68
2023-04-06T04:19:58.852Z,4.71
2023-04-06T04:20:58.837Z,4.68
2023-04-06T04:21:58.843Z,4.74
2023-04-06T04:22:58.812Z,4.70
2023-04-06T04:23:58.814Z,4.70
2023-04-06T04:24:58.817Z,4.68
2023-04-06T04:25:58.827Z,4.71
2023-04-06T04:26:58.829Z,4.70
2023-04-06T04:27:58.824Z,4.73
2023-04-06T04:28:58.766Z,4.70
2023-04-06T04:29:58.767Z,4.67
2023-04-06T04:30:58.825Z,4.66
2023-04-06T04:31:58.805Z,4.70
2023-04-06T04:32:58.902Z,4.63
2023-04-06T04:33:58.758Z,4.66
2023-04-06T04:34:58.752Z,4.67
2023-04-06T04:35:58.770Z,4.67
2023-04-06T04:36:58.821Z,4.71
2023-04-06T04:37:58.819Z,4.60
2023-04-06T04:38:58.700Z,4.66
2023-04-06T04:39:58.720Z,4.67
2023-04-06T04:40:58.686Z,4.74
2023-04-06T04:41:58.697Z,4.62
2023-04-06T04:42:58.675Z,4.63
2023-04-06T04:43:58.927Z,4.66
2023-04-06T04:44:58.654Z,4.60
2023-04-06T04:45:58.870Z,4.62
2023-04-06T04:46:58.688Z,4.59
2023-04-06T04:47:58.664Z,4.62
2023-04-06T04:48:58.638Z,4.63
2023-04-06T04:49:58.669Z,4.66
2023-04-06T04:50:58.617Z,4.60
2023-04-06T04:51:58.615Z,4.66
2023-04-06T04:52:58.618Z,4.63
2023-04-06T04:53:58.576Z,4.67
2023-04-06T04:54:58.575Z,4.63
2023-04-06T04:55:58.597Z,4.59
2023-04-06T04:56:58.547Z,4.70
2023-04-06T04:57:58.555Z,4.62
2023-04-06T04:58:58.557Z,4.68
2023-04-06T04:59:58.557Z,4.67
2023-04-06T05:00:58.561Z,4.71
2023-04-06T05:01:58.583Z,4.70
2023-04-06T05:02:58.638Z,4.70
2023-04-06T05:03:58.523Z,4.68
2023-04-06T05:04:58.503Z,4.60
2023-04-06T05:05:58.487Z,4.77
2023-04-06T05:06:58.489Z,4.68
2023-04-06T05:07:58.457Z,4.71
2023-04-06T05:08:58.441Z,4.73
2023-04-06T05:09:58.441Z,4.67
2023-04-06T05:10:58.437Z,4.70
2023-04-06T05:11:58.448Z,4.71
2023-04-06T05:12:58.407Z,4.75
2023-04-06T05:13:58.406Z,4.77
2023-04-06T05:14:58.405Z,4.74
2023-04-06T05:15:58.427Z,4.74
2023-04-06T05:16:58.389Z,4.74
2023-04-06T05:17:58.438Z,4.80
2023-04-06T05:18:58.399Z,4.71
2023-04-06T05:19:58.428Z,4.84
2023-04-06T05:20:58.352Z,4.73
2023-04-06T05:21:58.344Z,4.78
2023-04-06T05:22:58.336Z,4.70
2023-04-06T05:23:58.344Z,4.84
2023-04-06T05:24:58.332Z,4.74
2023-04-06T05:25:58.338Z,4.80
2023-04-06T05:26:58.300Z,4.75
2023-04-06T05:27:58.295Z,4.82
2023-04-06T05:28:58.282Z,4.82
2023-04-06T05:29:58.274Z,4.78
2023-04-06T05:30:58.445Z,4.80
2023-04-06T05:31:58.277Z,4.71
2023-04-06T05:32:58.291Z,4.80
2023-04-06T05:33:58.261Z,4.78
2023-04-06T05:34:58.250Z,4.77
2023-04-06T05:35:58.247Z,4.74
2023-04-06T05:36:58.234Z,4.82
2023-04-06T05:37:58.230Z,4.78
2023-04-06T05:38:58.210Z,4.84
2023-04-06T05:39:58.184Z,4.78
2023-04-06T05:40:58.177Z,4.80
2023-04-06T05:41:58.178Z,4.78
2023-04-06T05:42:58.173Z,4.78
2023-04-06T05:43:58.170Z,4.93
2023-04-06T05:44:58.157Z,4.86
2023-04-06T05:45:58.164Z,4.89
2023-04-06T05:46:58.206Z,4.86
2023-04-06T05:48:05.447Z,4.87
2023-04-06T05:50:03.706Z,4.93
2023-04-06T05:51:02.579Z,4.93
2023-04-06T05:52:02.571Z,4.96
2023-04-06T05:53:02.557Z,4.94
2023-04-06T05:54:02.572Z,4.94
2023-04-06T05:55:02.547Z,4.94
2023-04-06T05:56:02.539Z,4.94
2023-04-06T05:57:02.525Z,5.02
2023-04-06T05:58:02.560Z,4.99
2023-04-06T05:59:02.564Z,5.11
2023-04-06T06:00:02.571Z,5.05
2023-04-06T06:01:02.496Z,5.10
2023-04-06T06:02:02.618Z,5.11
2023-04-06T06:03:02.490Z,5.28
2023-04-06T06:04:02.508Z,5.18
2023-04-06T06:05:02.506Z,5.18
2023-04-06T06:06:03.574Z,5.17
2023-04-06T06:07:02.444Z,5.14
2023-04-06T06:08:02.456Z,5.07
2023-04-06T06:09:02.453Z,4.99
2023-04-06T06:10:02.429Z,4.92
2023-04-06T06:11:02.408Z,4.93
2023-04-06T06:12:02.410Z,4.94
2023-04-06T06:13:02.397Z,4.96
2023-04-06T06:14:02.404Z,4.93
2023-04-06T06:15:02.502Z,4.87
2023-04-06T06:16:02.488Z,4.94
2023-04-06T06:17:02.395Z,4.96
2023-04-06T06:18:02.511Z,4.92
2023-04-06T06:19:02.349Z,5.05
2023-04-06T06:20:02.398Z,4.96
2023-04-06T06:21:02.339Z,5.11
2023-04-06T06:22:02.332Z,5.07
2023-04-06T06:23:02.331Z,5.08
2023-04-06T06:24:02.353Z,5.04
2023-04-06T06:25:02.298Z,5.11
2023-04-06T06:26:02.356Z,5.14
2023-04-06T06:27:02.290Z,5.23
2023-04-06T06:28:02.283Z,5.14
2023-04-06T06:29:02.290Z,5.21
2023-04-06T06:30:02.299Z,5.35
2023-04-06T06:31:02.263Z,5.35
2023-04-06T06:32:02.313Z,5.39
2023-04-06T06:33:02.278Z,5.39
2023-04-06T06:34:02.241Z,5.56
2023-04-06T06:35:02.251Z,5.68
2023-04-06T06:36:02.281Z,5.91
2023-04-06T06:37:02.275Z,6.07
2023-04-06T06:38:02.278Z,6.12
2023-04-06T06:39:02.216Z,6.39
2023-04-06T06:40:02.206Z,6.70
2023-04-06T06:41:02.209Z,6.84
2023-04-06T06:42:02.195Z,7.14
2023-04-06T06:43:02.202Z,7.29
2023-04-06T06:44:02.208Z,7.43
2023-04-06T06:45:02.203Z,7.66
2023-04-06T06:46:02.264Z,7.77
2023-04-06T06:47:02.235Z,8.01
2023-04-06T06:48:02.329Z,8.16
2023-04-06T06:49:02.233Z,8.36
2023-04-06T06:50:02.233Z,8.37
2023-04-06T06:51:02.221Z,8.46
2023-04-06T06:52:02.226Z,8.67
2023-04-06T06:53:02.248Z,8.74
2023-04-06T06:54:02.261Z,8.94
2023-04-06T06:55:02.267Z,9.00
2023-04-06T06:56:02.286Z,9.06
2023-04-06T06:57:02.247Z,9.25
2023-04-06T06:58:02.250Z,9.26
2023-04-06T06:59:02.300Z,9.28
2023-04-06T07:00:02.306Z,9.34
2023-04-06T07:01:02.299Z,9.51
2023-04-06T07:02:02.275Z,9.61
2023-04-06T07:03:02.327Z,9.65
2023-04-06T07:04:02.388Z,9.80
2023-04-06T07:05:04.407Z,9.73
2023-04-06T07:06:02.313Z,9.83
2023-04-06T07:07:02.332Z,9.82
2023-04-06T07:08:02.335Z,9.99
2023-04-06T07:09:02.331Z,10.02
2023-04-06T07:10:02.336Z,10.16
2023-04-06T07:11:02.353Z,10.28
2023-04-06T07:12:02.373Z,10.48
2023-04-06T07:13:02.371Z,10.60
2023-04-06T07:14:02.384Z,10.75
2023-04-06T07:15:02.401Z,10.82
2023-04-06T07:16:02.418Z,10.97
2023-04-06T07:17:02.490Z,10.93
2023-04-06T07:18:02.456Z,11.05
2023-04-06T07:19:02.480Z,11.23
2023-04-06T07:20:02.466Z,11.23
2023-04-06T07:21:02.481Z,11.37
2023-04-06T07:22:02.449Z,11.59
2023-04-06T07:23:02.519Z,11.63
2023-04-06T07:24:02.469Z,11.72
2023-04-06T07:25:02.527Z,11.94
2023-04-06T07:26:02.503Z,11.99
2023-04-06T07:27:02.510Z,12.17
2023-04-06T07:28:02.543Z,12.20
2023-04-06T07:29:02.552Z,12.39
2023-04-06T07:30:02.539Z,12.35
2023-04-06T07:31:02.575Z,12.46
2023-04-06T07:32:02.877Z,12.53
2023-04-06T07:33:02.705Z,12.60
2023-04-06T07:34:02.663Z,12.62
2023-04-06T07:35:02.642Z,12.78
2023-04-06T07:36:02.676Z,12.95
2023-04-06T07:37:03.956Z,13.09
2023-04-06T07:38:02.642Z,13.19
2023-04-06T07:39:02.638Z,13.39
2023-04-06T07:40:02.661Z,13.28
2023-04-06T07:41:02.670Z,13.39
2023-04-06T07:42:02.702Z,13.38
2023-04-06T07:43:02.708Z,13.41
2023-04-06T07:44:02.729Z,13.38
2023-04-06T07:45:02.736Z,13.39
2023-04-06T07:46:02.779Z,13.49
2023-04-06T07:47:02.776Z,13.59
2023-04-06T07:48:02.868Z,13.71
2023-04-06T07:49:02.771Z,13.72
2023-04-06T07:50:02.777Z,13.74
2023-04-06T07:51:02.789Z,13.86
2023-04-06T07:52:02.872Z,13.89
2023-04-06T07:53:02.825Z,13.89
2023-04-06T07:54:02.824Z,13.95
2023-04-06T07:55:02.836Z,13.90
2023-04-06T07:56:02.874Z,14.03
2023-04-06T07:57:02.908Z,14.04
2023-04-06T07:58:02.882Z,14.15
2023-04-06T07:59:02.923Z,14.32
2023-04-06T08:00:02.945Z,14.43
2023-04-06T08:01:02.914Z,14.45
2023-04-06T08:02:02.948Z,14.43
2023-04-06T08:03:03.119Z,14.33
2023-04-06T08:04:03.061Z,14.32
2023-04-06T08:05:02.965Z,14.32
2023-04-06T08:06:02.975Z,14.35
2023-04-06T08:07:03.002Z,14.30
2023-04-06T08:08:03.002Z,14.22
2023-04-06T08:09:03.021Z,14.12
2023-04-06T08:10:03.042Z,13.96
2023-04-06T08:11:03.052Z,13.86
2023-04-06T08:12:03.059Z,13.74
2023-04-06T08:13:03.118Z,13.77
2023-04-06T08:14:03.090Z,13.71
2023-04-06T08:15:03.097Z,13.71
2023-04-06T08:16:03.156Z,13.67
2023-04-06T08:17:05.200Z,13.67
2023-04-06T08:18:03.166Z,13.59
2023-04-06T08:19:03.142Z,13.54
2023-04-06T08:20:03.149Z,13.63
2023-04-06T08:21:03.186Z,13.67
2023-04-06T08:22:03.187Z,13.68
2023-04-06T08:23:03.222Z,13.60
2023-04-06T08:24:03.194Z,13.56
2023-04-06T08:25:03.204Z,13.57
2023-04-06T08:26:03.235Z,13.59
2023-04-06T08:27:03.230Z,13.49
2023-04-06T08:28:03.239Z,13.44
2023-04-06T08:29:03.252Z,13.42
2023-04-06T08:30:03.292Z,13.44
2023-04-06T08:31:03.304Z,13.41
2023-04-06T08:32:03.278Z,13.47
2023-04-06T08:33:03.403Z,13.42
2023-04-06T08:34:03.297Z,13.47
2023-04-06T08:35:03.307Z,13.44
2023-04-06T08:36:03.373Z,13.47
2023-04-06T08:37:03.314Z,13.50
2023-04-06T08:38:03.342Z,13.42
2023-04-06T08:39:03.335Z,13.46
2023-04-06T08:40:03.332Z,13.37
2023-04-06T08:41:03.345Z,13.31
2023-04-06T08:42:03.335Z,13.25
2023-04-06T08:43:03.362Z,13.11
2023-04-06T08:44:03.377Z,12.95
2023-04-06T08:45:03.395Z,12.87
2023-04-06T08:46:03.400Z,12.75
2023-04-06T08:47:03.366Z,12.57
2023-04-06T08:48:03.410Z,12.58
2023-04-06T08:49:03.369Z,12.61
2023-04-06T08:50:03.435Z,12.54
2023-04-06T08:51:03.456Z,12.60
2023-04-06T08:52:03.368Z,12.57
2023-04-06T08:53:03.382Z,12.64
2023-04-06T08:54:03.378Z,12.62
2023-04-06T08:55:03.426Z,12.58
2023-04-06T08:56:03.385Z,12.64
2023-04-06T08:57:03.406Z,12.62
2023-04-06T08:58:03.455Z,12.58
2023-04-06T08:59:03.381Z,12.53
2023-04-06T09:00:03.392Z,12.58
2023-04-06T09:01:03.361Z,12.64
2023-04-06T09:02:03.461Z,12.65
2023-04-06T09:03:03.426Z,12.57
2023-04-06T09:04:04.132Z,12.53
2023-04-06T09:05:03.467Z,12.53
2023-04-06T09:06:03.352Z,12.47
2023-04-06T09:07:03.370Z,12.45
2023-04-06T09:08:03.357Z,12.43
2023-04-06T09:09:03.369Z,12.46
2023-04-06T09:10:03.367Z,12.61
2023-04-06T09:11:03.360Z,12.49
2023-04-06T09:12:03.361Z,12.47
2023-04-06T09:13:03.360Z,12.47
2023-04-06T09:14:03.355Z,12.53
2023-04-06T09:15:03.347Z,12.55
2023-04-06T09:16:03.410Z,12.60
2023-04-06T09:17:03.341Z,12.75
2023-04-06T09:18:03.383Z,12.85
2023-04-06T09:19:03.348Z,12.72
2023-04-06T09:20:03.327Z,12.61
2023-04-06T09:21:03.331Z,12.58
2023-04-06T09:22:03.332Z,12.58
2023-04-06T09:23:03.328Z,12.73
2023-04-06T09:24:03.417Z,12.83
2023-04-06T09:25:03.325Z,12.83
2023-04-06T09:26:03.324Z,12.86
2023-04-06T09:27:03.355Z,12.97
2023-04-06T09:28:03.329Z,12.86
2023-04-06T09:29:03.326Z,12.85
2023-04-06T09:30:03.390Z,12.87
2023-04-06T09:31:03.339Z,12.83
2023-04-06T09:32:03.339Z,12.76
2023-04-06T09:33:03.438Z,12.70
2023-04-06T09:34:03.318Z,12.76
2023-04-06T09:35:03.336Z,12.78
2023-04-06T09:36:03.368Z,12.80
2023-04-06T09:37:03.302Z,12.76
2023-04-06T09:38:03.314Z,12.73
2023-04-06T09:39:03.293Z,12.60
2023-04-06T09:40:03.295Z,12.62
2023-04-06T09:41:03.313Z,12.70
2023-04-06T09:42:03.301Z,12.73
2023-04-06T09:43:03.278Z,12.72
2023-04-06T09:44:03.291Z,12.83
2023-04-06T09:45:03.297Z,12.82
2023-04-06T09:46:03.281Z,12.80
2023-04-06T09:47:03.294Z,12.80
2023-04-06T09:48:03.366Z,12.83
2023-04-06T09:49:03.269Z,12.86
2023-04-06T09:50:03.285Z,12.79
2023-04-06T09:51:03.272Z,12.72
2023-04-06T09:52:03.325Z,12.73
2023-04-06T09:53:03.261Z,12.75
2023-04-06T09:54:03.273Z,12.72
2023-04-06T09:55:03.260Z,12.80
2023-04-06T09:56:03.265Z,12.80
2023-04-06T09:57:03.401Z,12.82
2023-04-06T09:58:03.424Z,12.85
2023-04-06T09:59:03.295Z,12.90
2023-04-06T10:00:03.232Z,12.98
2023-04-06T10:01:03.289Z,12.93
2023-04-06T10:02:03.228Z,13.01
2023-04-06T10:03:03.336Z,12.98
2023-04-06T10:04:03.346Z,12.95
2023-04-06T10:05:03.220Z,12.85
2023-04-06T10:06:03.227Z,12.85
2023-04-06T10:07:03.218Z,12.73
2023-04-06T10:08:03.208Z,12.55
2023-04-06T10:09:03.209Z,12.49
2023-04-06T10:10:03.230Z,12.47
2023-04-06T10:11:03.235Z,12.47
2023-04-06T10:12:03.253Z,12.58
2023-04-06T10:13:03.211Z,12.60
2023-04-06T10:14:03.223Z,12.50
2023-04-06T10:15:03.255Z,12.47
2023-04-06T10:16:03.275Z,12.55
2023-04-06T10:17:03.263Z,12.60
2023-04-06T10:18:03.339Z,12.54
2023-04-06T10:19:03.344Z,12.58
2023-04-06T10:20:03.204Z,12.58
2023-04-06T10:21:03.254Z,12.55
2023-04-06T10:22:03.230Z,12.54
2023-04-06T10:23:03.217Z,12.53
2023-04-06T10:24:03.173Z,12.39
2023-04-06T10:25:03.200Z,12.37
2023-04-06T10:26:03.184Z,12.40
2023-04-06T10:27:03.196Z,12.37
2023-04-06T10:28:03.215Z,12.43
2023-04-06T10:29:03.160Z,12.46
2023-04-06T10:30:03.173Z,12.47
2023-04-06T10:31:03.200Z,12.47
2023-04-06T10:32:03.221Z,12.45
2023-04-06T10:33:03.249Z,12.35
2023-04-06T10:34:03.243Z,12.24
2023-04-06T10:35:03.175Z,12.12
2023-04-06T10:36:03.169Z,12.17
2023-04-06T10:37:03.144Z,12.21
2023-04-06T10:38:03.145Z,12.15
2023-04-06T10:39:03.165Z,12.18
2023-04-06T10:40:03.148Z,12.10
2023-04-06T10:41:03.170Z,12.02
2023-04-06T10:42:03.150Z,11.99
2023-04-06T10:43:03.163Z,11.83
2023-04-06T10:44:03.149Z,11.78
2023-04-06T10:45:03.125Z,11.78
2023-04-06T10:46:03.167Z,11.68
2023-04-06T10:47:03.133Z,11.62
2023-04-06T10:48:03.188Z,11.60
2023-04-06T10:49:03.137Z,11.65
2023-04-06T10:50:03.121Z,11.52
2023-04-06T10:51:03.143Z,11.51
2023-04-06T10:52:03.142Z,11.48
2023-04-06T10:53:03.136Z,11.40
2023-04-06T10:54:03.108Z,11.36
2023-04-06T10:55:03.183Z,11.15
2023-04-06T10:56:03.087Z,11.26
2023-04-06T10:57:03.094Z,11.19
2023-04-06T10:58:03.082Z,11.18
2023-04-06T10:59:03.135Z,11.15
2023-04-06T11:00:03.075Z,11.14
2023-04-06T11:01:03.105Z,11.12
2023-04-06T11:02:03.093Z,11.14
2023-04-06T11:03:03.169Z,11.14
2023-04-06T11:04:03.082Z,11.23
2023-04-06T11:05:03.064Z,11.27
2023-04-06T11:06:03.057Z,11.30
2023-04-06T11:07:03.039Z,11.23
2023-04-06T11:08:03.044Z,11.27
2023-04-06T11:09:03.040Z,11.26
2023-04-06T11:11:03.036Z,11.14
2023-04-06T11:12:03.028Z,11.07
2023-04-06T11:13:03.017Z,11.04
2023-04-06T11:14:03.038Z,11.02
2023-04-06T11:15:03.056Z,11.00
2023-04-06T11:16:03.023Z,11.05
2023-04-06T11:17:03.051Z,11.00
2023-04-06T11:18:03.082Z,11.07
2023-04-06T11:19:03.045Z,11.04
2023-04-06T11:20:03.005Z,10.94
2023-04-06T11:21:03.009Z,11.08
2023-04-06T11:22:03.002Z,11.05
2023-04-06T11:23:03.026Z,11.04
2023-04-06T11:24:03.006Z,11.08
2023-04-06T11:25:02.994Z,11.12
2023-04-06T11:26:02.989Z,11.11
2023-04-06T11:27:02.991Z,11.22
2023-04-06T11:28:02.991Z,11.22
2023-04-06T11:29:02.983Z,11.19
2023-04-06T11:30:03.050Z,11.27
2023-04-06T11:31:03.016Z,11.19
2023-04-06T11:32:02.962Z,11.23
2023-04-06T11:33:03.022Z,11.22
2023-04-06T11:34:02.975Z,11.19
2023-04-06T11:35:02.969Z,11.27
2023-04-06T11:36:02.964Z,11.25
2023-04-06T11:37:02.968Z,11.19
2023-04-06T11:38:03.048Z,11.26
2023-04-06T11:39:02.954Z,11.23
2023-04-06T11:40:02.997Z,11.22
2023-04-06T11:41:02.948Z,11.14
2023-04-06T11:42:02.924Z,11.14
2023-04-06T11:43:02.924Z,11.07
2023-04-06T11:44:02.924Z,11.05
2023-04-06T11:45:03.002Z,11.05
2023-04-06T11:46:03.047Z,11.00
2023-04-06T11:47:02.975Z,11.05
2023-04-06T11:48:04.518Z,11.08
2023-04-06T11:49:02.951Z,11.07
2023-04-06T11:50:02.964Z,11.04
2023-04-06T11:51:02.898Z,11.04
2023-04-06T11:52:02.887Z,11.08
2023-04-06T11:53:02.900Z,11.08
2023-04-06T11:54:02.896Z,11.15
2023-04-06T11:55:02.875Z,11.23
2023-04-06T11:56:02.902Z,11.26
2023-04-06T11:57:02.904Z,11.23
2023-04-06T11:58:03.008Z,11.23
2023-04-06T11:59:02.957Z,11.23
2023-04-06T12:00:02.872Z,11.27
2023-04-06T12:01:02.862Z,11.32
2023-04-06T12:02:02.893Z,11.37
2023-04-06T12:03:02.957Z,11.33
2023-04-06T12:04:03.063Z,11.18
2023-04-06T12:05:02.857Z,11.19
2023-04-06T12:06:02.844Z,11.19
2023-04-06T12:07:02.860Z,11.18
2023-04-06T12:08:03.792Z,11.15
2023-04-06T12:09:02.843Z,11.15
2023-04-06T12:10:02.839Z,11.08
2023-04-06T12:11:02.871Z,11.18
2023-04-06T12:12:02.833Z,11.14
2023-04-06T12:13:02.822Z,11.05
2023-04-06T12:14:02.809Z,11.07
2023-04-06T12:15:02.828Z,11.12
2023-04-06T12:16:02.872Z,11.22
2023-04-06T12:17:02.803Z,11.29
2023-04-06T12:18:02.875Z,11.33
2023-04-06T12:19:02.801Z,11.40
2023-04-06T12:20:13.511Z,11.44
2023-04-06T12:21:02.800Z,11.40
2023-04-06T12:22:02.807Z,11.37
2023-04-06T12:23:02.802Z,11.43
2023-04-06T12:24:02.788Z,11.41
2023-04-06T12:25:02.785Z,11.41
2023-04-06T12:26:02.779Z,11.36
2023-04-06T12:27:09.880Z,11.37
2023-04-06T12:28:02.763Z,11.36
2023-04-06T12:29:02.781Z,11.36
2023-04-06T12:30:02.770Z,11.41
2023-04-06T12:31:02.795Z,11.40
2023-04-06T12:32:02.801Z,11.40
2023-04-06T12:33:02.862Z,11.35
2023-04-06T12:34:02.778Z,11.43
2023-04-06T12:35:02.787Z,11.44
2023-04-06T12:36:02.737Z,11.45
2023-04-06T12:37:02.854Z,11.30
2023-04-06T12:38:02.731Z,11.35
2023-04-06T12:39:02.733Z,11.40
2023-04-06T12:40:02.731Z,11.50
2023-04-06T12:41:02.723Z,11.44
2023-04-06T12:42:02.712Z,11.47
2023-04-06T12:43:02.715Z,11.50
2023-04-06T12:44:02.725Z,11.32
2023-04-06T12:45:02.727Z,11.43
2023-04-06T12:46:02.717Z,11.40
2023-04-06T12:47:02.746Z,11.40
2023-04-06T12:48:02.786Z,11.36
2023-04-06T12:49:02.701Z,11.50
2023-04-06T12:50:02.699Z,11.52
2023-04-06T12:51:02.711Z,11.54
2023-04-06T12:52:02.706Z,11.57
2023-04-06T12:53:02.760Z,11.60
2023-04-06T12:54:02.722Z,11.60
2023-04-06T12:55:02.693Z,11.59
2023-04-06T12:56:02.925Z,11.54
2023-04-06T12:57:02.705Z,11.62
2023-04-06T12:58:02.692Z,11.70
2023-04-06T12:59:02.759Z,11.69
2023-04-06T13:00:02.744Z,11.65
2023-04-06T13:01:02.701Z,11.52
2023-04-06T13:02:02.691Z,11.65
2023-04-06T13:03:02.661Z,11.65
2023-04-06T13:04:02.655Z,11.69
2023-04-06T13:05:02.651Z,11.55
2023-04-06T13:06:02.640Z,11.60
2023-04-06T13:07:02.683Z,11.52
2023-04-06T13:08:02.648Z,11.55
2023-04-06T13:09:02.638Z,11.52